Time;durP1;ratioP1;P1;durP2;ratioP2;P2;SDS_P1;SDS_P2;PMS_P1;PMS_P2;Temp;Humidity;BMP_temperature;BMP_pressure;BME280_temperature;BME280_humidity;BME280_pressure;Samples;Min_cycle;Max_cycle;Signal;HPM_P1;HPM_P2
2024/03/06 00:02:14;;;;;;;13.68;6.65;;;4.70;99.90;;;;;;5067256;28;20140;-90
2024/03/06 00:04:41;;;;;;;15.52;6.75;;;5.00;99.90;;;;;;5058393;28;20029;-90
2024/03/06 00:07:07;;;;;;;12.00;5.97;;;4.70;99.90;;;;;;5071131;28;20073;-90
2024/03/06 00:09:34;;;;;;;12.57;5.72;;;4.70;99.90;;;;;;5058550;28;20087;-90
2024/03/06 00:12:00;;;;;;;16.80;6.28;;;5.80;99.90;;;;;;5055756;28;20037;-90
2024/03/06 00:14:27;;;;;;;12.50;6.25;;;4.70;99.90;;;;;;5058818;28;20041;-90
2024/03/06 00:16:55;;;;;;;13.45;6.10;;;4.70;99.90;;;;;;5052179;28;20079;-90
2024/03/06 00:19:23;;;;;;;12.80;5.90;;;4.70;99.90;;;;;;5059624;28;20098;-90
2024/03/06 00:21:49;;;;;;;11.77;6.15;;;5.10;99.90;;;;;;5070151;28;20049;-90
2024/03/06 00:24:16;;;;;;;11.95;6.75;;;5.50;99.90;;;;;;5053740;28;20538;-90
2024/03/06 00:26:44;;;;;;;13.05;6.60;;;4.70;99.90;;;;;;5053348;28;20049;-90
2024/03/06 00:29:11;;;;;;;12.82;5.85;;;4.90;99.90;;;;;;5053791;28;20402;-90
2024/03/06 00:31:43;;;;;;;12.15;6.10;;;5.70;99.90;;;;;;5063336;28;20037;-90
2024/03/06 00:34:11;;;;;;;18.10;6.55;;;4.60;99.90;;;;;;5058546;28;20037;-90
2024/03/06 00:36:38;;;;;;;19.00;6.00;;;5.30;99.90;;;;;;5079957;28;20045;-90
2024/03/06 00:39:04;;;;;;;10.68;6.00;;;5.30;99.90;;;;;;5063305;28;20405;-90
2024/03/06 00:41:31;;;;;;;14.15;6.00;;;4.60;99.90;;;;;;5054911;28;20060;-90
2024/03/06 00:43:58;;;;;;;12.45;6.25;;;5.50;99.90;;;;;;5065246;28;20402;-89
2024/03/06 00:46:24;;;;;;;9.68;5.32;;;4.60;99.90;;;;;;5054036;28;20041;-91
2024/03/06 00:48:51;;;;;;;16.40;6.22;;;5.20;99.90;;;;;;5054072;28;20049;-90
2024/03/06 00:51:18;;;;;;;10.75;5.55;;;4.60;99.90;;;;;;5054183;28;20483;-90
2024/03/06 00:53:45;;;;;;;11.00;5.90;;;5.90;99.90;;;;;;5053597;28;20037;-90
2024/03/06 00:56:12;;;;;;;11.52;5.97;;;4.60;99.90;;;;;;5054050;28;20033;-90
2024/03/06 00:58:38;;;;;;;12.85;6.15;;;5.60;99.90;;;;;;5053736;28;20418;-90
2024/03/06 01:01:05;;;;;;;9.70;5.35;;;4.60;99.90;;;;;;5070303;28;20375;-90
2024/03/06 01:03:32;;;;;;;13.82;5.97;;;4.70;99.90;;;;;;5053616;28;20042;-89
2024/03/06 01:05:59;;;;;;;14.07;6.07;;;4.60;99.90;;;;;;5054025;28;20045;-90
2024/03/06 01:08:25;;;;;;;11.55;5.93;;;4.60;99.90;;;;;;5054063;28;20045;-90
2024/03/06 01:10:54;;;;;;;13.13;6.25;;;4.60;99.90;;;;;;5053610;28;20073;-90
2024/03/06 01:13:24;;;;;;;11.90;6.18;;;4.70;99.90;;;;;;5053159;28;20414;-90
2024/03/06 01:15:51;;;;;;;13.20;5.70;;;5.10;99.90;;;;;;5055020;28;20498;-89
2024/03/06 01:18:18;;;;;;;10.88;6.30;;;4.60;99.90;;;;;;5070781;28;20041;-90
2024/03/06 01:20:45;;;;;;;16.58;6.30;;;5.50;99.90;;;;;;5074026;28;20048;-90
2024/03/06 01:23:11;;;;;;;13.98;6.60;;;4.60;99.90;;;;;;5059698;28;20060;-91
2024/03/06 01:25:38;;;;;;;12.77;6.05;;;4.60;99.90;;;;;;5053335;28;20044;-90
2024/03/06 01:28:05;;;;;;;13.40;5.80;;;4.60;99.90;;;;;;5066101;28;20049;-90
2024/03/06 01:30:31;;;;;;;11.48;6.28;;;4.50;99.90;;;;;;5061304;28;20045;-90
2024/03/06 01:32:58;;;;;;;14.35;6.13;;;4.50;99.90;;;;;;5068352;28;20120;-90
2024/03/06 01:35:25;;;;;;;12.93;6.38;;;4.80;99.90;;;;;;5069803;28;20504;-90
2024/03/06 01:37:51;;;;;;;12.15;6.28;;;5.50;99.90;;;;;;5055562;28;20044;-91
2024/03/06 01:40:18;;;;;;;12.43;6.25;;;4.40;99.90;;;;;;5060678;28;20042;-90
2024/03/06 01:42:48;;;;;;;10.18;6.07;;;4.50;99.90;;;;;;5055871;28;20072;-90
2024/03/06 01:45:14;;;;;;;14.73;6.53;;;5.10;99.90;;;;;;5082773;28;20045;-91
2024/03/06 01:47:41;;;;;;;11.77;5.97;;;4.50;99.90;;;;;;5054176;28;20094;-90
2024/03/06 01:50:10;;;;;;;12.10;6.40;;;5.40;99.90;;;;;;5063786;28;20044;-90
2024/03/06 01:52:38;;;;;;;12.32;6.32;;;4.40;99.90;;;;;;5053852;28;20038;-90
2024/03/06 01:55:06;;;;;;;14.05;6.72;;;4.40;99.90;;;;;;5065379;28;20056;-90
2024/03/06 01:57:34;;;;;;;12.60;6.53;;;4.40;99.90;;;;;;5053628;28;20041;-90
2024/03/06 02:00:03;;;;;;;12.02;6.43;;;4.50;99.90;;;;;;5052392;28;20033;-89
2024/03/06 02:02:30;;;;;;;11.48;6.25;;;4.40;99.90;;;;;;5067367;28;20045;-90
2024/03/06 02:04:59;;;;;;;12.40;7.07;;;4.40;99.90;;;;;;5069758;28;20067;-90
2024/03/06 02:07:28;;;;;;;11.35;6.43;;;4.40;99.90;;;;;;5056911;28;20487;-90
2024/03/06 02:09:55;;;;;;;14.63;7.20;;;4.40;99.90;;;;;;5079443;28;20041;-90
2024/03/06 02:12:21;;;;;;;15.15;6.55;;;5.40;99.90;;;;;;5052396;28;20041;-89
2024/03/06 02:14:50;;;;;;;11.25;6.55;;;4.40;99.90;;;;;;5066115;28;20080;-91
2024/03/06 02:17:17;;;;;;;13.07;6.35;;;4.40;99.90;;;;;;5068771;28;20041;-90
2024/03/06 02:19:44;;;;;;;14.77;6.63;;;4.30;99.90;;;;;;5079875;28;20129;-90
2024/03/06 02:22:11;;;;;;;13.80;6.95;;;4.70;99.90;;;;;;5052064;28;20116;-90
2024/03/06 02:24:42;;;;;;;15.60;7.22;;;4.30;99.90;;;;;;5052085;28;20033;-90
2024/03/06 02:27:09;;;;;;;12.85;6.78;;;4.30;99.90;;;;;;5063586;28;20474;-90
2024/03/06 02:29:35;;;;;;;10.98;6.85;;;4.30;99.90;;;;;;5052453;28;20048;-91
2024/03/06 02:32:02;;;;;;;16.42;6.82;;;5.30;99.90;;;;;;5052342;28;20051;-90
2024/03/06 02:34:30;;;;;;;13.55;6.95;;;4.30;99.90;;;;;;5060558;28;20038;-90
2024/03/06 02:36:56;;;;;;;15.63;7.30;;;5.40;99.90;;;;;;5052130;28;20037;-90
2024/03/06 02:39:23;;;;;;;17.67;7.80;;;4.20;99.90;;;;;;5051268;28;20180;-91
2024/03/06 02:41:50;;;;;;;12.38;7.30;;;4.20;99.90;;;;;;5040808;28;20041;-90
2024/03/06 02:44:17;;;;;;;14.38;7.05;;;4.70;99.90;;;;;;5059231;28;20045;-91
2024/03/06 02:46:50;;;;;;;12.35;6.57;;;4.80;99.90;;;;;;5084767;28;20044;-90
2024/03/06 02:49:17;;;;;;;12.85;6.75;;;5.00;99.90;;;;;;5054234;28;20047;-91
2024/03/06 02:51:43;;;;;;;13.85;7.20;;;4.20;99.90;;;;;;5060489;28;20128;-90
2024/03/06 02:54:10;;;;;;;14.90;7.18;;;5.20;99.90;;;;;;5051735;28;20129;-90
2024/03/06 02:56:37;;;;;;;13.98;7.68;;;4.20;99.90;;;;;;5045835;28;20034;-90
2024/03/06 02:59:04;;;;;;;20.05;7.43;;;5.00;99.90;;;;;;5051577;28;20552;-90
2024/03/06 03:01:30;;;;;;;17.13;7.22;;;4.90;99.90;;;;;;5051868;28;20494;-90
2024/03/06 03:03:57;;;;;;;15.27;7.10;;;5.20;99.90;;;;;;5051548;28;20037;-90
2024/03/06 03:06:24;;;;;;;14.68;7.43;;;4.20;99.90;;;;;;5051752;28;20037;-90
2024/03/06 03:08:50;;;;;;;16.75;7.70;;;4.60;99.90;;;;;;5074213;28;20114;-90
2024/03/06 03:11:17;;;;;;;15.85;7.35;;;4.20;99.90;;;;;;5055732;28;20037;-90
2024/03/06 03:13:44;;;;;;;14.80;7.65;;;4.20;99.90;;;;;;5058500;28;20103;-90
2024/03/06 03:16:18;;;;;;;14.68;7.75;;;4.20;99.90;;;;;;5095086;28;20041;-91
2024/03/06 03:18:45;;;;;;;14.30;7.20;;;4.20;99.90;;;;;;5055330;28;20128;-90
2024/03/06 03:21:12;;;;;;;14.73;7.53;;;4.20;99.90;;;;;;5060072;28;20175;-91
2024/03/06 03:23:39;;;;;;;12.88;6.90;;;4.20;99.90;;;;;;5053346;28;20048;-90
2024/03/06 03:26:10;;;;;;;14.55;7.22;;;4.80;99.90;;;;;;5061007;28;20033;-90
2024/03/06 03:28:40;;;;;;;13.77;7.28;;;5.00;99.90;;;;;;5054407;28;20061;-90
2024/03/06 03:31:08;;;;;;;16.67;7.90;;;4.20;99.90;;;;;;5050823;28;20067;-90
2024/03/06 03:33:39;;;;;;;14.45;7.57;;;4.30;99.90;;;;;;5083887;28;20103;-90
2024/03/06 03:36:07;;;;;;;15.88;7.80;;;5.50;99.90;;;;;;5067401;28;20548;-90
2024/03/06 03:38:38;;;;;;;13.20;7.60;;;4.20;99.90;;;;;;5051271;28;20125;-90
2024/03/06 03:41:09;;;;;;;15.88;8.13;;;5.50;99.90;;;;;;5051208;28;20060;-90
2024/03/06 03:43:35;;;;;;;18.05;7.18;;;5.20;99.90;;;;;;5050839;28;20041;-91
2024/03/06 03:46:04;;;;;;;14.60;7.38;;;4.60;99.90;;;;;;5054516;28;20053;-90
2024/03/06 03:48:31;;;;;;;15.57;8.00;;;4.20;99.90;;;;;;5051036;28;20044;-91
2024/03/06 03:50:58;;;;;;;13.38;7.40;;;4.20;99.90;;;;;;5068026;28;20060;-90
2024/03/06 03:53:24;;;;;;;18.17;8.20;;;4.80;99.90;;;;;;5050916;28;20478;-90
2024/03/06 03:55:51;;;;;;;18.75;8.20;;;4.20;99.90;;;;;;5072779;28;20124;-89
2024/03/06 03:58:17;;;;;;;16.02;8.00;;;4.80;99.90;;;;;;5052283;28;20401;-90
2024/03/06 04:00:44;;;;;;;16.13;7.60;;;4.20;99.90;;;;;;5051231;28;20041;-90
2024/03/06 04:03:11;;;;;;;13.55;7.68;;;4.20;99.90;;;;;;5062944;28;20490;-90
2024/03/06 04:05:37;;;;;;;16.88;7.85;;;4.80;99.90;;;;;;5067071;28;20041;-90
2024/03/06 04:08:06;;;;;;;14.52;7.93;;;4.20;99.90;;;;;;5073482;28;20124;-90
2024/03/06 04:10:33;;;;;;;16.40;8.15;;;4.20;99.90;;;;;;5070777;28;20081;-90
2024/03/06 04:13:00;;;;;;;17.13;8.45;;;4.30;99.90;;;;;;5059587;28;20037;-90
2024/03/06 04:15:27;;;;;;;17.05;8.45;;;5.10;99.90;;;;;;5072924;28;20686;-91
2024/03/06 04:17:53;;;;;;;15.82;8.18;;;4.30;99.90;;;;;;5071271;28;20068;-90
2024/03/06 04:20:20;;;;;;;15.40;8.25;;;4.20;99.90;;;;;;5074555;28;20047;-90
2024/03/06 04:22:50;;;;;;;13.82;7.55;;;5.20;99.90;;;;;;5063211;28;20410;-90
2024/03/06 04:25:17;;;;;;;18.33;8.25;;;4.20;99.90;;;;;;5054640;28;20033;-90
2024/03/06 04:27:44;;;;;;;13.82;7.72;;;4.20;99.90;;;;;;5054145;28;20049;-90
2024/03/06 04:30:11;;;;;;;13.13;7.93;;;4.50;99.90;;;;;;5054346;28;20045;-90
2024/03/06 04:32:38;;;;;;;15.63;8.18;;;4.20;99.90;;;;;;5054055;28;20525;-90
2024/03/06 04:35:05;;;;;;;18.15;8.65;;;4.20;99.90;;;;;;5054607;28;20033;-90
2024/03/06 04:37:33;;;;;;;15.95;8.05;;;4.30;99.90;;;;;;5060722;28;20051;-90
2024/03/06 04:40:00;;;;;;;15.98;7.70;;;4.50;99.90;;;;;;5070763;28;20038;-90
2024/03/06 04:42:27;;;;;;;15.77;8.88;;;4.20;99.90;;;;;;5059472;28;20487;-90
2024/03/06 04:44:53;;;;;;;17.38;8.10;;;5.00;99.90;;;;;;5083010;28;20029;-90
2024/03/06 04:47:20;;;;;;;17.33;8.43;;;4.40;99.90;;;;;;5054038;28;20037;-91
2024/03/06 04:49:47;;;;;;;16.60;7.97;;;5.40;99.90;;;;;;5054835;28;20037;-90
2024/03/06 04:52:13;;;;;;;16.63;8.38;;;5.10;99.90;;;;;;5067105;28;20044;-90
2024/03/06 04:54:40;;;;;;;16.33;8.45;;;4.30;99.90;;;;;;5070184;28;20040;-91
2024/03/06 04:57:07;;;;;;;17.58;8.57;;;4.30;99.90;;;;;;5057017;28;20043;-90
2024/03/06 04:59:33;;;;;;;18.38;8.85;;;4.20;99.90;;;;;;5064939;28;20038;-90
2024/03/06 05:02:03;;;;;;;14.98;8.32;;;4.20;99.90;;;;;;5053439;28;20528;-89
2024/03/06 05:04:29;;;;;;;15.65;7.68;;;4.40;99.90;;;;;;5053330;28;20033;-89
2024/03/06 05:06:56;;;;;;;16.33;8.57;;;4.20;99.90;;;;;;5057464;28;20555;-90
2024/03/06 05:09:23;;;;;;;13.10;7.53;;;4.70;99.90;;;;;;5061561;28;20045;-90
2024/03/06 05:11:50;;;;;;;18.15;8.20;;;4.60;99.90;;;;;;5069556;28;20044;-90
2024/03/06 05:14:17;;;;;;;18.17;8.55;;;5.20;99.90;;;;;;5062493;28;20041;-90
2024/03/06 05:16:44;;;;;;;16.25;8.95;;;5.00;99.90;;;;;;5053539;28;20052;-90
2024/03/06 05:19:10;;;;;;;16.48;8.50;;;4.20;99.90;;;;;;5061412;28;20091;-90
2024/03/06 05:21:37;;;;;;;16.50;8.23;;;4.30;99.90;;;;;;5072221;28;20132;-90
2024/03/06 05:24:04;;;;;;;15.88;8.82;;;4.30;99.90;;;;;;5076980;28;20513;-90
2024/03/06 05:26:31;;;;;;;15.60;8.45;;;4.30;99.90;;;;;;5051836;28;20045;-90
2024/03/06 05:28:58;;;;;;;17.25;8.38;;;4.30;99.90;;;;;;5053181;28;20111;-90
2024/03/06 05:31:25;;;;;;;13.95;8.20;;;4.70;99.90;;;;;;5067924;28;20042;-90
2024/03/06 05:33:51;;;;;;;16.90;8.90;;;5.00;99.90;;;;;;5053397;28;20033;-90
2024/03/06 05:36:18;;;;;;;14.77;8.18;;;5.10;99.90;;;;;;5053028;28;20041;-90
2024/03/06 05:38:45;;;;;;;16.13;8.35;;;5.00;99.90;;;;;;5053183;28;20029;-90
2024/03/06 05:41:12;;;;;;;17.45;8.10;;;5.40;99.90;;;;;;5058524;28;20441;-90
2024/03/06 05:43:40;;;;;;;15.98;8.27;;;4.40;99.90;;;;;;5066431;28;20060;-91
2024/03/06 05:46:07;;;;;;;16.10;8.70;;;4.30;99.90;;;;;;5052838;28;20045;-90
2024/03/06 05:48:34;;;;;;;16.88;8.35;;;5.30;99.90;;;;;;5053259;28;20052;-89
2024/03/06 05:51:00;;;;;;;15.50;8.63;;;5.00;99.90;;;;;;5057646;28;20033;-90
2024/03/06 05:53:27;;;;;;;17.13;8.57;;;4.30;99.90;;;;;;5069587;28;20083;-90
2024/03/06 05:55:54;;;;;;;20.05;8.23;;;5.30;99.90;;;;;;5085538;28;20525;-91
2024/03/06 05:58:21;;;;;;;13.80;8.38;;;4.30;99.90;;;;;;5055297;28;20120;-90
2024/03/06 06:00:47;;;;;;;15.38;8.23;;;4.30;99.90;;;;;;5092297;28;20124;-90
2024/03/06 06:03:14;;;;;;;17.73;8.88;;;4.30;99.90;;;;;;5088307;28;20080;-91
2024/03/06 06:05:41;;;;;;;17.02;8.75;;;4.30;99.90;;;;;;5057278;28;20048;-90
2024/03/06 06:08:07;;;;;;;15.95;8.32;;;4.30;99.90;;;;;;5086763;28;20069;-90
2024/03/06 06:10:34;;;;;;;16.70;8.70;;;4.80;99.90;;;;;;5058961;28;20057;-89
2024/03/06 06:13:01;;;;;;;19.13;8.23;;;4.30;99.90;;;;;;5052162;28;20062;-90
2024/03/06 06:15:28;;;;;;;18.77;8.75;;;5.20;99.90;;;;;;5052034;28;20041;-90
2024/03/06 06:17:54;;;;;;;17.65;8.35;;;4.30;99.90;;;;;;5078919;28;20040;-90
2024/03/06 06:20:21;;;;;;;20.55;9.38;;;4.30;99.90;;;;;;5063319;28;20421;-90
2024/03/06 06:22:48;;;;;;;18.73;9.35;;;4.50;99.90;;;;;;5052789;28;20044;-90
2024/03/06 06:25:15;;;;;;;18.55;8.77;;;5.10;99.90;;;;;;5062768;28;20056;-90
2024/03/06 06:27:42;;;;;;;15.77;8.10;;;4.30;99.90;;;;;;5068059;28;20065;-90
2024/03/06 06:30:11;;;;;;;15.95;9.07;;;4.30;99.90;;;;;;5052044;28;20048;-91
2024/03/06 06:32:38;;;;;;;21.30;9.63;;;4.30;99.90;;;;;;5063581;28;20033;-90
2024/03/06 06:35:05;;;;;;;15.35;8.23;;;4.30;99.90;;;;;;5051110;28;20179;-90
2024/03/06 06:37:32;;;;;;;17.15;9.68;;;4.30;99.90;;;;;;5064331;28;20054;-90
2024/03/06 06:39:59;;;;;;;19.92;8.98;;;4.40;99.90;;;;;;5058704;28;20107;-90
2024/03/06 06:42:26;;;;;;;21.27;10.02;;;4.30;99.90;;;;;;5067802;28;20040;-90
2024/03/06 06:44:53;;;;;;;15.75;8.75;;;4.50;99.90;;;;;;5051589;28;20120;-90
2024/03/06 06:47:19;;;;;;;21.88;9.68;;;4.70;99.90;;;;;;5055853;28;20125;-90
2024/03/06 06:49:46;;;;;;;25.20;10.43;;;5.20;99.90;;;;;;5061956;28;20128;-91
2024/03/06 06:52:13;;;;;;;19.08;9.52;;;4.60;99.90;;;;;;5060540;28;20073;-90
2024/03/06 06:54:40;;;;;;;17.63;9.32;;;4.40;99.90;;;;;;5050425;28;20120;-90
2024/03/06 06:57:08;;;;;;;19.63;10.32;;;4.40;99.90;;;;;;5059841;28;20409;-90
2024/03/06 06:59:34;;;;;;;20.48;9.90;;;4.40;99.90;;;;;;5051511;28;20034;-91
2024/03/06 07:02:02;;;;;;;20.75;10.18;;;4.90;99.90;;;;;;5065764;28;20064;-91
2024/03/06 07:04:29;;;;;;;15.88;8.52;;;4.40;99.90;;;;;;5068599;28;20041;-90
2024/03/06 07:06:56;;;;;;;15.07;8.18;;;4.40;99.90;;;;;;5054587;28;20041;-93
2024/03/06 07:09:23;;;;;;;20.85;9.27;;;4.80;99.90;;;;;;5067997;28;20042;-91
2024/03/06 07:11:50;;;;;;;19.17;9.20;;;4.40;99.90;;;;;;5051354;28;20041;-90
2024/03/06 07:14:17;;;;;;;17.48;9.82;;;4.70;99.90;;;;;;5054101;28;20498;-91
2024/03/06 07:16:44;;;;;;;16.30;9.35;;;4.70;99.90;;;;;;5057285;28;20064;-92
2024/03/06 07:19:11;;;;;;;17.23;9.27;;;5.50;99.90;;;;;;5061077;28;20071;-92
2024/03/06 07:21:39;;;;;;;19.33;9.40;;;4.90;99.90;;;;;;5057134;28;20072;-92
2024/03/06 07:24:08;;;;;;;19.98;9.60;;;5.70;99.90;;;;;;5060535;28;20417;-93
2024/03/06 07:26:35;;;;;;;17.33;8.95;;;4.40;99.90;;;;;;5086318;28;20048;-92
2024/03/06 07:29:02;;;;;;;19.60;9.30;;;4.50;99.90;;;;;;5059476;28;20053;-91
2024/03/06 07:31:29;;;;;;;17.52;9.98;;;5.70;99.90;;;;;;5054292;28;20134;-90
2024/03/06 07:33:55;;;;;;;20.25;9.60;;;5.20;99.90;;;;;;5053710;28;20458;-92
2024/03/06 07:36:22;;;;;;;18.27;9.70;;;4.40;99.90;;;;;;5057063;28;20041;-91
2024/03/06 07:38:49;;;;;;;18.55;9.70;;;4.50;99.90;;;;;;5051401;28;20033;-91
2024/03/06 07:41:15;;;;;;;18.70;9.35;;;5.80;99.90;;;;;;5061875;28;20045;-92
2024/03/06 07:43:42;;;;;;;19.90;10.10;;;5.50;99.90;;;;;;5053523;28;20041;-91
2024/03/06 07:46:10;;;;;;;17.42;9.50;;;5.70;99.90;;;;;;5067666;28;20037;-90
2024/03/06 07:48:37;;;;;;;17.00;9.35;;;5.90;99.90;;;;;;5050518;28;20387;-91
2024/03/06 07:51:04;;;;;;;16.10;9.10;;;5.00;99.90;;;;;;5057603;28;20037;-91
2024/03/06 07:53:31;;;;;;;19.58;10.30;;;4.50;99.90;;;;;;5051487;28;20041;-92
2024/03/06 07:55:57;;;;;;;18.60;10.02;;;4.50;99.90;;;;;;5070246;28;20521;-91
2024/03/06 07:58:24;;;;;;;17.63;10.00;;;4.60;99.90;;;;;;5055110;28;20078;-91
2024/03/06 08:00:55;;;;;;;17.10;9.50;;;4.80;99.90;;;;;;5080148;28;20549;-90
2024/03/06 08:03:22;;;;;;;16.17;8.70;;;5.60;99.90;;;;;;5055684;28;20083;-92
2024/03/06 08:05:54;;;;;;;17.13;9.63;;;5.50;99.90;;;;;;5069703;28;20087;-91
2024/03/06 08:08:22;;;;;;;19.27;10.00;;;4.20;99.90;;;;;;5078822;28;20038;-91
2024/03/06 08:10:49;;;;;;;16.40;9.27;;;5.70;99.90;;;;;;5060835;28;20483;-92
2024/03/06 08:13:15;;;;;;;18.02;9.63;;;4.80;99.90;;;;;;5059123;28;20048;-91
2024/03/06 08:15:44;;;;;;;21.83;9.45;;;5.00;99.90;;;;;;5050231;28;20384;-90
2024/03/06 08:18:11;;;;;;;19.58;10.02;;;5.50;99.90;;;;;;5056356;28;20065;-90
2024/03/06 08:20:37;;;;;;;21.80;10.10;;;4.70;99.90;;;;;;5050309;28;20081;-90
2024/03/06 08:23:04;;;;;;;19.08;9.35;;;4.70;99.90;;;;;;5066884;28;20076;-91
2024/03/06 08:25:32;;;;;;;18.40;9.45;;;4.70;99.90;;;;;;5063598;28;20148;-91
2024/03/06 08:27:59;;;;;;;16.25;8.60;;;4.70;99.90;;;;;;5057332;28;20041;-91
2024/03/06 08:30:26;;;;;;;19.33;9.70;;;4.70;99.90;;;;;;5085381;28;20171;-91
2024/03/06 08:32:52;;;;;;;18.05;10.23;;;4.70;99.90;;;;;;5054435;28;20072;-91
2024/03/06 08:35:21;;;;;;;18.13;9.48;;;4.70;99.90;;;;;;5050700;28;20037;-91
2024/03/06 08:37:47;;;;;;;20.20;10.55;;;5.50;99.90;;;;;;5058311;28;20037;-91
2024/03/06 08:40:17;;;;;;;18.95;9.25;;;4.80;99.90;;;;;;5082050;28;20053;-91
2024/03/06 08:42:44;;;;;;;19.92;10.15;;;5.60;99.90;;;;;;5062322;28;20033;-90
2024/03/06 08:45:11;;;;;;;23.95;10.40;;;4.80;99.90;;;;;;5053123;28;20065;-92
2024/03/06 08:47:38;;;;;;;19.17;10.05;;;4.80;99.90;;;;;;5058820;28;20099;-91
2024/03/06 08:50:06;;;;;;;17.08;9.40;;;4.90;99.90;;;;;;5051335;28;20040;-91
2024/03/06 08:52:36;;;;;;;19.95;10.50;;;4.90;99.90;;;;;;5065326;28;20486;-91
2024/03/06 08:55:06;;;;;;;18.38;10.32;;;5.70;99.90;;;;;;5050028;28;20072;-91
2024/03/06 08:57:37;;;;;;;19.60;10.80;;;5.00;99.90;;;;;;5069380;28;20049;-91
2024/03/06 09:00:10;;;;;;;21.05;11.00;;;5.10;99.90;;;;;;5050249;28;20033;-91
2024/03/06 09:02:40;;;;;;;18.50;10.05;;;5.10;99.90;;;;;;5070205;28;20112;-91
2024/03/06 09:05:10;;;;;;;19.65;10.27;;;5.20;99.90;;;;;;5053701;28;20048;-90
2024/03/06 09:07:38;;;;;;;20.13;11.07;;;5.20;99.90;;;;;;5069769;28;20116;-90
2024/03/06 09:10:08;;;;;;;18.15;10.07;;;5.70;99.90;;;;;;5056585;28;20037;-91
2024/03/06 09:12:35;;;;;;;18.77;10.52;;;5.40;99.90;;;;;;5070485;28;20038;-91
2024/03/06 09:15:02;;;;;;;24.52;9.82;;;5.50;99.90;;;;;;5070181;28;20064;-91
2024/03/06 09:17:29;;;;;;;18.65;10.68;;;5.50;99.90;;;;;;5068430;28;20049;-90
2024/03/06 09:19:56;;;;;;;20.25;10.07;;;5.70;99.90;;;;;;5066082;28;20490;-91
2024/03/06 09:22:23;;;;;;;24.85;10.55;;;5.70;99.90;;;;;;5077192;28;20045;-90
2024/03/06 09:24:49;;;;;;;19.40;9.98;;;6.10;99.90;;;;;;5081798;28;20120;-91
2024/03/06 09:27:17;;;;;;;23.35;10.98;;;6.80;99.90;;;;;;5052734;28;20084;-91
2024/03/06 09:29:44;;;;;;;21.85;11.00;;;5.80;99.90;;;;;;5069872;28;20052;-90
2024/03/06 09:32:15;;;;;;;18.95;10.48;;;5.80;99.90;;;;;;5045063;28;20042;-91
2024/03/06 09:34:42;;;;;;;20.23;10.77;;;6.60;99.90;;;;;;5068006;28;21424;-91
2024/03/06 09:37:09;;;;;;;18.92;10.35;;;7.10;99.90;;;;;;5056711;28;20038;-91
2024/03/06 09:39:36;;;;;;;19.58;10.40;;;5.90;99.90;;;;;;5078897;28;20120;-91
2024/03/06 09:42:03;;;;;;;20.10;10.75;;;6.00;99.90;;;;;;5063917;28;20140;-91
2024/03/06 09:44:30;;;;;;;22.15;10.70;;;6.00;99.90;;;;;;5068254;28;20048;-91
2024/03/06 09:47:01;;;;;;;23.30;11.30;;;6.10;99.90;;;;;;5082917;28;20768;-91
2024/03/06 09:49:30;;;;;;;23.08;12.05;;;6.30;99.90;;;;;;5056882;28;20051;-92
2024/03/06 09:51:58;;;;;;;25.20;11.32;;;6.90;99.90;;;;;;5052634;28;20058;-92
2024/03/06 09:54:26;;;;;;;22.10;11.27;;;7.00;99.90;;;;;;5050900;28;20379;-91
2024/03/06 09:56:55;;;;;;;20.95;11.35;;;6.50;99.90;;;;;;5052970;28;20045;-91
2024/03/06 09:59:22;;;;;;;21.20;10.95;;;6.70;99.90;;;;;;5069350;28;20073;-91
2024/03/06 10:01:57;;;;;;;24.05;12.05;;;6.80;99.90;;;;;;5070469;28;20052;-91
2024/03/06 10:04:27;;;;;;;22.15;11.82;;;7.00;99.90;;;;;;5076600;28;20044;-91
2024/03/06 10:06:58;;;;;;;22.95;11.73;;;7.00;99.90;;;;;;5069606;28;20046;-91
2024/03/06 10:09:26;;;;;;;22.92;11.90;;;8.10;99.90;;;;;;5075558;28;20042;-91
2024/03/06 10:11:56;;;;;;;23.77;10.52;;;7.10;99.90;;;;;;5054821;28;20041;-91
2024/03/06 10:14:23;;;;;;;22.45;11.23;;;7.40;99.90;;;;;;5069117;28;20029;-92
2024/03/06 10:17:01;;;;;;;21.55;11.48;;;7.10;99.90;;;;;;5052700;28;20075;-91
2024/03/06 10:19:29;;;;;;;18.95;10.95;;;7.00;99.90;;;;;;5065848;28;20502;-90
2024/03/06 10:21:57;;;;;;;25.13;12.00;;;7.00;99.90;;;;;;5075194;28;20037;-92
2024/03/06 10:24:26;;;;;;;25.00;11.57;;;7.80;99.90;;;;;;5072685;28;20034;-91
2024/03/06 10:26:57;;;;;;;21.38;11.35;;;7.60;99.90;;;;;;5068345;28;20057;-91
2024/03/06 10:29:26;;;;;;;22.80;11.25;;;8.10;99.90;;;;;;5078161;28;20064;-91
2024/03/06 10:31:54;;;;;;;23.65;11.23;;;7.20;99.90;;;;;;5068875;28;20052;-90
2024/03/06 10:34:26;;;;;;;21.95;12.60;;;7.20;99.90;;;;;;5069601;28;20033;-91
2024/03/06 10:37:01;;;;;;;21.25;11.98;;;7.30;99.90;;;;;;5068705;28;20037;-90
2024/03/06 10:39:30;;;;;;;21.83;12.07;;;7.30;99.90;;;;;;5054198;28;20033;-91
2024/03/06 10:41:57;;;;;;;22.73;11.63;;;7.50;99.90;;;;;;5053297;28;20095;-89
2024/03/06 10:44:25;;;;;;;21.83;11.23;;;7.50;99.90;;;;;;5039325;28;20409;-90
2024/03/06 10:47:02;;;;;;;23.42;11.73;;;7.60;99.90;;;;;;5070738;28;20037;-89
2024/03/06 10:49:30;;;;;;;20.63;11.80;;;7.50;99.90;;;;;;5071264;28;20041;-90
2024/03/06 10:51:59;;;;;;;24.13;12.43;;;7.50;99.90;;;;;;5058838;28;20045;-92
2024/03/06 10:54:32;;;;;;;25.77;11.27;;;8.40;99.90;;;;;;5046248;28;20041;-89
2024/03/06 10:56:58;;;;;;;22.92;11.90;;;8.60;99.90;;;;;;5068314;28;20044;-91
2024/03/06 10:59:29;;;;;;;21.10;11.40;;;8.30;99.90;;;;;;5076573;28;20037;-92
2024/03/06 11:01:56;;;;;;;22.02;11.40;;;8.20;99.90;;;;;;5075865;28;20119;-92
2024/03/06 11:04:33;;;;;;;21.75;10.55;;;7.80;99.90;;;;;;5067969;28;20494;-92
2024/03/06 11:07:04;;;;;;;22.63;11.68;;;8.50;99.90;;;;;;5076989;28;20040;-92
2024/03/06 11:09:35;;;;;;;27.55;12.45;;;7.80;99.90;;;;;;5072723;28;20052;-91
2024/03/06 11:12:02;;;;;;;23.00;12.13;;;7.80;99.90;;;;;;5074554;28;20079;-91
2024/03/06 11:14:31;;;;;;;22.27;11.93;;;7.80;99.90;;;;;;5074659;28;20038;-90
2024/03/06 11:17:02;;;;;;;20.65;12.27;;;7.80;99.90;;;;;;5075338;28;20030;-92
2024/03/06 11:19:30;;;;;;;25.80;12.32;;;7.80;99.90;;;;;;5036321;28;20053;-91
2024/03/06 11:21:58;;;;;;;20.38;11.25;;;8.20;99.90;;;;;;5058129;28;20041;-92
2024/03/06 11:24:33;;;;;;;24.60;12.40;;;7.80;99.90;;;;;;5072984;28;20780;-91
2024/03/06 11:27:01;;;;;;;21.45;11.55;;;7.70;99.90;;;;;;5073117;28;20037;-92
2024/03/06 11:30:13;;;;;;;21.58;11.80;;;8.10;99.90;;;;;;5078118;28;20056;-91
2024/03/06 11:33:02;;;;;;;22.15;11.82;;;7.80;99.90;;;;;;5059406;28;20055;-92
2024/03/06 11:35:29;;;;;;;24.25;11.98;;;7.80;99.90;;;;;;5057633;28;20068;-92
2024/03/06 11:37:56;;;;;;;24.98;10.75;;;7.90;99.90;;;;;;5071984;28;20120;-92
2024/03/06 11:40:27;;;;;;;22.67;11.80;;;7.90;99.90;;;;;;5065099;28;20152;-91
2024/03/06 11:42:54;;;;;;;19.88;11.13;;;7.80;99.90;;;;;;5067613;28;20069;-90
2024/03/06 11:45:22;;;;;;;21.38;11.60;;;7.80;99.90;;;;;;5063805;28;20076;-91
2024/03/06 11:48:01;;;;;;;25.42;13.00;;;7.70;99.90;;;;;;5089068;28;20076;-92
2024/03/06 11:50:31;;;;;;;21.13;11.85;;;7.80;99.90;;;;;;5064466;28;20038;-92
2024/03/06 11:52:58;;;;;;;21.02;12.02;;;7.70;99.90;;;;;;5079027;28;20103;-93
2024/03/06 11:55:25;;;;;;;22.45;12.15;;;7.70;99.90;;;;;;5064278;28;20086;-92
2024/03/06 11:57:53;;;;;;;23.88;12.45;;;7.70;99.90;;;;;;5060912;28;20037;-92
2024/03/06 12:00:24;;;;;;;25.88;12.30;;;7.70;99.90;;;;;;5052393;28;20034;-92
2024/03/06 12:02:51;;;;;;;26.88;12.32;;;9.00;99.90;;;;;;5052887;28;20065;-92
2024/03/06 12:05:18;;;;;;;22.50;12.00;;;7.70;99.90;;;;;;5052809;28;20041;-90
2024/03/06 12:07:49;;;;;;;23.27;12.90;;;8.60;99.90;;;;;;5069799;28;20037;-94
2024/03/06 12:10:17;;;;;;;26.25;13.23;;;7.80;99.90;;;;;;5048110;28;20038;-92
2024/03/06 12:12:47;;;;;;;23.42;12.45;;;7.90;99.90;;;;;;5073270;28;20065;-93
2024/03/06 12:15:14;;;;;;;23.02;13.10;;;7.90;99.90;;;;;;5053278;28;20068;-94
2024/03/06 12:17:46;;;;;;;25.35;11.88;;;8.00;99.90;;;;;;5057616;28;20041;-94
2024/03/06 12:20:16;;;;;;;24.27;12.77;;;8.30;99.90;;;;;;5088727;28;20124;-94
2024/03/06 12:22:53;;;;;;;23.38;12.82;;;7.80;99.90;;;;;;5067481;28;20076;-94
2024/03/06 12:25:25;;;;;;;23.27;12.57;;;7.80;99.90;;;;;;5067378;28;20037;-92
2024/03/06 12:27:54;;;;;;;24.48;12.82;;;7.80;99.90;;;;;;5048165;28;20061;-94
2024/03/06 12:30:22;;;;;;;25.30;13.35;;;7.80;99.90;;;;;;5067502;28;20045;-94
2024/03/06 12:33:02;;;;;;;29.50;14.23;;;8.20;99.90;;;;;;5060774;28;20037;-94
2024/03/06 12:35:31;;;;;;;29.80;13.98;;;7.90;99.90;;;;;;5041013;28;20095;-94
2024/03/06 12:37:58;;;;;;;25.48;12.68;;;7.90;99.90;;;;;;5061055;28;20037;-94
2024/03/06 12:40:24;;;;;;;27.15;13.73;;;8.10;99.90;;;;;;5070628;28;20410;-93
2024/03/06 12:42:54;;;;;;;25.02;13.32;;;8.10;99.90;;;;;;5054846;28;20133;-94
2024/03/06 12:45:21;;;;;;;26.50;13.90;;;8.60;99.90;;;;;;5081499;28;20068;-94
2024/03/06 12:47:48;;;;;;;27.10;13.70;;;8.60;99.90;;;;;;5070570;28;20475;-92